sensor_id;sensor_type;location;lat;lon;timestamp;P1;P2;P0
57884;PMS5003;43703;51.060;-0.086;2023-02-15T00:00:21;100;85;
57884;PMS5003;43703;51.060;-0.086;2023-02-15T00:02:46;82;79;
57884;PMS5003;43703;51.060;-0.086;2023-02-15T00:05:12;85;82;
57884;PMS5003;43703;51.060;-0.086;2023-02-15T00:07:37;91;88;
57884;PMS5003;43703;51.060;-0.086;2023-02-15T00:10:03;94;85;
57884;PMS5003;43703;51.060;-0.086;2023-02-15T00:12:28;99;91;
57884;PMS5003;43703;51.060;-0.086;2023-02-15T00:14:54;102;93;
57884;PMS5003;43703;51.060;-0.086;2023-02-15T00:17:20;98;90;
57884;PMS5003;43703;51.060;-0.086;2023-02-15T00:19:45;90;86;
57884;PMS5003;43703;51.060;-0.086;2023-02-15T00:22:11;104;94;
57884;PMS5003;43703;51.060;-0.086;2023-02-15T00:24:36;102;91;
57884;PMS5003;43703;51.060;-0.086;2023-02-15T00:27:01;97;91;
57884;PMS5003;43703;51.060;-0.086;2023-02-15T00:29:26;102;95;
57884;PMS5003;43703;51.060;-0.086;2023-02-15T00:31:52;98;91;
57884;PMS5003;43703;51.060;-0.086;2023-02-15T00:34:19;102;92;
57884;PMS5003;43703;51.060;-0.086;2023-02-15T00:36:43;102;100;
57884;PMS5003;43703;51.060;-0.086;2023-02-15T00:39:08;108;100;
57884;PMS5003;43703;51.060;-0.086;2023-02-15T00:41:33;102;94;
57884;PMS5003;43703;51.060;-0.086;2023-02-15T00:43:58;108;102;
57884;PMS5003;43703;51.060;-0.086;2023-02-15T00:46:24;101;95;
57884;PMS5003;43703;51.060;-0.086;2023-02-15T00:48:49;105;98;
57884;PMS5003;43703;51.060;-0.086;2023-02-15T00:51:14;113;101;
57884;PMS5003;43703;51.060;-0.086;2023-02-15T00:53:39;106;97;
57884;PMS5003;43703;51.060;-0.086;2023-02-15T00:56:05;106;100;
57884;PMS5003;43703;51.060;-0.086;2023-02-15T00:58:30;109;102;
57884;PMS5003;43703;51.060;-0.086;2023-02-15T01:01:01;104;98;
57884;PMS5003;43703;51.060;-0.086;2023-02-15T01:03:21;110;108;
57884;PMS5003;43703;51.060;-0.086;2023-02-15T01:05:49;106;101;
57884;PMS5003;43703;51.060;-0.086;2023-02-15T01:08:13;104;98;
57884;PMS5003;43703;51.060;-0.086;2023-02-15T01:10:38;110;103;
57884;PMS5003;43703;51.060;-0.086;2023-02-15T01:13:03;119;115;
57884;PMS5003;43703;51.060;-0.086;2023-02-15T01:15:29;127;113;
57884;PMS5003;43703;51.060;-0.086;2023-02-15T01:17:54;106;99;
57884;PMS5003;43703;51.060;-0.086;2023-02-15T01:20:19;105;101;
57884;PMS5003;43703;51.060;-0.086;2023-02-15T01:22:45;121;111;
57884;PMS5003;43703;51.060;-0.086;2023-02-15T01:25:10;115;110;
57884;PMS5003;43703;51.060;-0.086;2023-02-15T01:27:36;113;109;
57884;PMS5003;43703;51.060;-0.086;2023-02-15T01:30:01;123;105;
57884;PMS5003;43703;51.060;-0.086;2023-02-15T01:32:26;114;112;
57884;PMS5003;43703;51.060;-0.086;2023-02-15T01:34:52;120;105;
57884;PMS5003;43703;51.060;-0.086;2023-02-15T01:37:17;124;118;
57884;PMS5003;43703;51.060;-0.086;2023-02-15T01:39:42;128;113;
57884;PMS5003;43703;51.060;-0.086;2023-02-15T01:42:08;118;107;
57884;PMS5003;43703;51.060;-0.086;2023-02-15T01:46:58;122;110;
57884;PMS5003;43703;51.060;-0.086;2023-02-15T01:49:24;131;118;
57884;PMS5003;43703;51.060;-0.086;2023-02-15T01:51:50;126;115;
57884;PMS5003;43703;51.060;-0.086;2023-02-15T01:54:16;117;113;
57884;PMS5003;43703;51.060;-0.086;2023-02-15T01:56:40;128;119;
57884;PMS5003;43703;51.060;-0.086;2023-02-15T01:59:06;130;120;
57884;PMS5003;43703;51.060;-0.086;2023-02-15T02:01:31;132;126;
57884;PMS5003;43703;51.060;-0.086;2023-02-15T02:03:58;137;124;
57884;PMS5003;43703;51.060;-0.086;2023-02-15T02:06:22;130;119;
57884;PMS5003;43703;51.060;-0.086;2023-02-15T02:08:47;133;121;
57884;PMS5003;43703;51.060;-0.086;2023-02-15T02:11:13;139;128;
57884;PMS5003;43703;51.060;-0.086;2023-02-15T02:13:38;137;125;
57884;PMS5003;43703;51.060;-0.086;2023-02-15T02:16:06;125;119;
57884;PMS5003;43703;51.060;-0.086;2023-02-15T02:18:34;134;124;
57884;PMS5003;43703;51.060;-0.086;2023-02-15T02:23:24;131;123;
57884;PMS5003;43703;51.060;-0.086;2023-02-15T02:28:16;133;124;
57884;PMS5003;43703;51.060;-0.086;2023-02-15T02:30:41;133;123;
57884;PMS5003;43703;51.060;-0.086;2023-02-15T02:35:30;139;130;
57884;PMS5003;43703;51.060;-0.086;2023-02-15T02:37:55;137;126;
57884;PMS5003;43703;51.060;-0.086;2023-02-15T02:40:20;140;132;
57884;PMS5003;43703;51.060;-0.086;2023-02-15T02:42:44;138;133;
57884;PMS5003;43703;51.060;-0.086;2023-02-15T02:45:10;133;123;
57884;PMS5003;43703;51.060;-0.086;2023-02-15T02:47:36;140;132;
57884;PMS5003;43703;51.060;-0.086;2023-02-15T02:50:00;154;138;
57884;PMS5003;43703;51.060;-0.086;2023-02-15T02:54:50;158;142;
57884;PMS5003;43703;51.060;-0.086;2023-02-15T02:57:16;144;135;
57884;PMS5003;43703;51.060;-0.086;2023-02-15T02:59:41;145;132;
57884;PMS5003;43703;51.060;-0.086;2023-02-15T03:02:07;155;143;
57884;PMS5003;43703;51.060;-0.086;2023-02-15T03:04:32;152;135;
57884;PMS5003;43703;51.060;-0.086;2023-02-15T03:06:57;136;130;
57884;PMS5003;43703;51.060;-0.086;2023-02-15T03:09:23;153;133;
57884;PMS5003;43703;51.060;-0.086;2023-02-15T03:11:48;150;136;
57884;PMS5003;43703;51.060;-0.086;2023-02-15T03:14:14;148;133;
57884;PMS5003;43703;51.060;-0.086;2023-02-15T03:16:39;142;131;
57884;PMS5003;43703;51.060;-0.086;2023-02-15T03:19:06;146;133;
57884;PMS5003;43703;51.060;-0.086;2023-02-15T03:21:31;153;139;
57884;PMS5003;43703;51.060;-0.086;2023-02-15T03:23:56;134;126;
57884;PMS5003;43703;51.060;-0.086;2023-02-15T03:26:21;144;128;
57884;PMS5003;43703;51.060;-0.086;2023-02-15T03:28:47;137;130;
57884;PMS5003;43703;51.060;-0.086;2023-02-15T03:31:12;138;125;
57884;PMS5003;43703;51.060;-0.086;2023-02-15T03:33:38;131;125;
57884;PMS5003;43703;51.060;-0.086;2023-02-15T03:36:04;134;130;
57884;PMS5003;43703;51.060;-0.086;2023-02-15T03:38:30;152;138;
57884;PMS5003;43703;51.060;-0.086;2023-02-15T03:40:54;138;126;
57884;PMS5003;43703;51.060;-0.086;2023-02-15T03:43:21;140;131;
57884;PMS5003;43703;51.060;-0.086;2023-02-15T03:45:45;143;128;
57884;PMS5003;43703;51.060;-0.086;2023-02-15T03:48:10;137;128;
57884;PMS5003;43703;51.060;-0.086;2023-02-15T03:50:35;142;131;
57884;PMS5003;43703;51.060;-0.086;2023-02-15T03:53:01;145;127;
57884;PMS5003;43703;51.060;-0.086;2023-02-15T03:55:26;132;120;
57884;PMS5003;43703;51.060;-0.086;2023-02-15T03:57:51;146;128;
57884;PMS5003;43703;51.060;-0.086;2023-02-15T04:00:18;136;125;
57884;PMS5003;43703;51.060;-0.086;2023-02-15T04:02:46;144;129;
57884;PMS5003;43703;51.060;-0.086;2023-02-15T04:05:08;130;123;
57884;PMS5003;43703;51.060;-0.086;2023-02-15T04:07:33;134;126;
57884;PMS5003;43703;51.060;-0.086;2023-02-15T04:09:59;143;135;
57884;PMS5003;43703;51.060;-0.086;2023-02-15T04:12:24;132;126;
57884;PMS5003;43703;51.060;-0.086;2023-02-15T04:14:50;132;125;
57884;PMS5003;43703;51.060;-0.086;2023-02-15T04:17:15;129;119;
57884;PMS5003;43703;51.060;-0.086;2023-02-15T04:19:41;134;125;
57884;PMS5003;43703;51.060;-0.086;2023-02-15T04:22:06;129;120;
57884;PMS5003;43703;51.060;-0.086;2023-02-15T04:24:31;140;128;
57884;PMS5003;43703;51.060;-0.086;2023-02-15T04:26:57;132;118;
57884;PMS5003;43703;51.060;-0.086;2023-02-15T04:29:23;126;117;
57884;PMS5003;43703;51.060;-0.086;2023-02-15T04:31:48;124;117;
57884;PMS5003;43703;51.060;-0.086;2023-02-15T04:34:13;143;125;
57884;PMS5003;43703;51.060;-0.086;2023-02-15T04:36:38;135;132;
57884;PMS5003;43703;51.060;-0.086;2023-02-15T04:39:04;132;131;
57884;PMS5003;43703;51.060;-0.086;2023-02-15T04:41:29;130;120;
57884;PMS5003;43703;51.060;-0.086;2023-02-15T04:43:54;131;118;
57884;PMS5003;43703;51.060;-0.086;2023-02-15T04:46:20;147;138;
57884;PMS5003;43703;51.060;-0.086;2023-02-15T04:48:45;120;117;
57884;PMS5003;43703;51.060;-0.086;2023-02-15T04:51:11;130;123;
57884;PMS5003;43703;51.060;-0.086;2023-02-15T04:53:37;143;128;
57884;PMS5003;43703;51.060;-0.086;2023-02-15T04:56:03;144;134;
57884;PMS5003;43703;51.060;-0.086;2023-02-15T04:58:28;135;121;
57884;PMS5003;43703;51.060;-0.086;2023-02-15T05:00:54;145;128;
57884;PMS5003;43703;51.060;-0.086;2023-02-15T05:03:18;153;134;
57884;PMS5003;43703;51.060;-0.086;2023-02-15T05:05:44;151;135;
57884;PMS5003;43703;51.060;-0.086;2023-02-15T05:08:10;144;131;
57884;PMS5003;43703;51.060;-0.086;2023-02-15T05:10:35;135;121;
57884;PMS5003;43703;51.060;-0.086;2023-02-15T05:13:00;132;123;
57884;PMS5003;43703;51.060;-0.086;2023-02-15T05:15:26;133;126;
57884;PMS5003;43703;51.060;-0.086;2023-02-15T05:17:51;141;132;
57884;PMS5003;43703;51.060;-0.086;2023-02-15T05:20:18;134;123;
57884;PMS5003;43703;51.060;-0.086;2023-02-15T05:22:42;142;131;
57884;PMS5003;43703;51.060;-0.086;2023-02-15T05:25:08;131;125;
57884;PMS5003;43703;51.060;-0.086;2023-02-15T05:27:32;135;127;
57884;PMS5003;43703;51.060;-0.086;2023-02-15T05:29:58;149;136;
57884;PMS5003;43703;51.060;-0.086;2023-02-15T05:32:23;139;125;
57884;PMS5003;43703;51.060;-0.086;2023-02-15T05:34:48;140;129;
57884;PMS5003;43703;51.060;-0.086;2023-02-15T05:37:14;130;126;
57884;PMS5003;43703;51.060;-0.086;2023-02-15T05:39:39;122;111;
57884;PMS5003;43703;51.060;-0.086;2023-02-15T05:42:04;133;119;
57884;PMS5003;43703;51.060;-0.086;2023-02-15T05:44:30;143;131;
57884;PMS5003;43703;51.060;-0.086;2023-02-15T05:46:56;129;121;
57884;PMS5003;43703;51.060;-0.086;2023-02-15T05:49:22;142;130;
57884;PMS5003;43703;51.060;-0.086;2023-02-15T05:51:48;140;130;
57884;PMS5003;43703;51.060;-0.086;2023-02-15T05:54:13;139;127;
57884;PMS5003;43703;51.060;-0.086;2023-02-15T05:56:38;139;124;
57884;PMS5003;43703;51.060;-0.086;2023-02-15T05:59:03;135;124;
57884;PMS5003;43703;51.060;-0.086;2023-02-15T06:01:28;133;125;
57884;PMS5003;43703;51.060;-0.086;2023-02-15T06:03:54;137;123;
57884;PMS5003;43703;51.060;-0.086;2023-02-15T06:06:19;136;124;
57884;PMS5003;43703;51.060;-0.086;2023-02-15T06:08:44;143;124;
57884;PMS5003;43703;51.060;-0.086;2023-02-15T06:11:11;134;123;
57884;PMS5003;43703;51.060;-0.086;2023-02-15T06:13:35;140;131;
57884;PMS5003;43703;51.060;-0.086;2023-02-15T06:16:02;137;127;
57884;PMS5003;43703;51.060;-0.086;2023-02-15T06:18:26;135;131;
57884;PMS5003;43703;51.060;-0.086;2023-02-15T06:20:52;140;127;
57884;PMS5003;43703;51.060;-0.086;2023-02-15T06:23:18;142;132;
57884;PMS5003;43703;51.060;-0.086;2023-02-15T06:25:44;132;122;
57884;PMS5003;43703;51.060;-0.086;2023-02-15T06:28:09;147;138;
57884;PMS5003;43703;51.060;-0.086;2023-02-15T06:30:35;133;124;
57884;PMS5003;43703;51.060;-0.086;2023-02-15T06:33:00;140;128;
57884;PMS5003;43703;51.060;-0.086;2023-02-15T06:35:26;140;130;
57884;PMS5003;43703;51.060;-0.086;2023-02-15T06:37:51;131;120;
57884;PMS5003;43703;51.060;-0.086;2023-02-15T06:40:17;136;129;
57884;PMS5003;43703;51.060;-0.086;2023-02-15T06:42:43;145;135;
57884;PMS5003;43703;51.060;-0.086;2023-02-15T06:45:09;147;140;
57884;PMS5003;43703;51.060;-0.086;2023-02-15T06:47:34;144;126;
57884;PMS5003;43703;51.060;-0.086;2023-02-15T06:50:00;135;123;
57884;PMS5003;43703;51.060;-0.086;2023-02-15T06:52:25;143;135;
57884;PMS5003;43703;51.060;-0.086;2023-02-15T06:54:51;120;112;
57884;PMS5003;43703;51.060;-0.086;2023-02-15T06:57:17;144;129;
57884;PMS5003;43703;51.060;-0.086;2023-02-15T06:59:42;135;124;
57884;PMS5003;43703;51.060;-0.086;2023-02-15T07:02:08;145;133;
57884;PMS5003;43703;51.060;-0.086;2023-02-15T07:04:34;138;127;
57884;PMS5003;43703;51.060;-0.086;2023-02-15T07:07:00;152;143;
57884;PMS5003;43703;51.060;-0.086;2023-02-15T07:09:25;146;136;
57884;PMS5003;43703;51.060;-0.086;2023-02-15T07:11:51;156;142;
57884;PMS5003;43703;51.060;-0.086;2023-02-15T07:14:16;148;140;
57884;PMS5003;43703;51.060;-0.086;2023-02-15T07:16:42;149;137;
57884;PMS5003;43703;51.060;-0.086;2023-02-15T07:19:08;153;141;
57884;PMS5003;43703;51.060;-0.086;2023-02-15T07:21:33;141;129;
57884;PMS5003;43703;51.060;-0.086;2023-02-15T07:23:59;149;136;
57884;PMS5003;43703;51.060;-0.086;2023-02-15T07:26:24;144;134;
57884;PMS5003;43703;51.060;-0.086;2023-02-15T07:28:49;146;139;
57884;PMS5003;43703;51.060;-0.086;2023-02-15T07:31:15;151;135;
57884;PMS5003;43703;51.060;-0.086;2023-02-15T07:33:40;145;138;
57884;PMS5003;43703;51.060;-0.086;2023-02-15T07:36:06;133;118;
57884;PMS5003;43703;51.060;-0.086;2023-02-15T07:38:32;149;138;
57884;PMS5003;43703;51.060;-0.086;2023-02-15T07:40:57;141;127;
57884;PMS5003;43703;51.060;-0.086;2023-02-15T07:43:22;144;131;
57884;PMS5003;43703;51.060;-0.086;2023-02-15T07:45:47;137;125;
57884;PMS5003;43703;51.060;-0.086;2023-02-15T07:48:12;137;130;
57884;PMS5003;43703;51.060;-0.086;2023-02-15T07:50:38;128;122;
57884;PMS5003;43703;51.060;-0.086;2023-02-15T07:53:03;134;128;
57884;PMS5003;43703;51.060;-0.086;2023-02-15T07:55:28;140;130;
57884;PMS5003;43703;51.060;-0.086;2023-02-15T07:57:54;129;119;
57884;PMS5003;43703;51.060;-0.086;2023-02-15T08:00:20;124;114;
57884;PMS5003;43703;51.060;-0.086;2023-02-15T08:02:47;145;130;
57884;PMS5003;43703;51.060;-0.086;2023-02-15T08:05:10;132;123;
57884;PMS5003;43703;51.060;-0.086;2023-02-15T08:07:35;146;135;
57884;PMS5003;43703;51.060;-0.086;2023-02-15T08:10:01;150;138;
57884;PMS5003;43703;51.060;-0.086;2023-02-15T08:12:27;154;145;
57884;PMS5003;43703;51.060;-0.086;2023-02-15T08:14:52;161;152;
57884;PMS5003;43703;51.060;-0.086;2023-02-15T08:17:17;164;153;
57884;PMS5003;43703;51.060;-0.086;2023-02-15T08:19:43;162;153;
57884;PMS5003;43703;51.060;-0.086;2023-02-15T08:22:10;155;145;
57884;PMS5003;43703;51.060;-0.086;2023-02-15T08:24:34;150;142;
57884;PMS5003;43703;51.060;-0.086;2023-02-15T08:26:59;147;137;
57884;PMS5003;43703;51.060;-0.086;2023-02-15T08:29:25;144;132;
57884;PMS5003;43703;51.060;-0.086;2023-02-15T08:31:53;136;126;
57884;PMS5003;43703;51.060;-0.086;2023-02-15T08:34:17;142;130;
57884;PMS5003;43703;51.060;-0.086;2023-02-15T08:36:41;127;119;
57884;PMS5003;43703;51.060;-0.086;2023-02-15T08:39:07;127;117;
57884;PMS5003;43703;51.060;-0.086;2023-02-15T08:41:33;130;122;
57884;PMS5003;43703;51.060;-0.086;2023-02-15T08:43:59;124;114;
57884;PMS5003;43703;51.060;-0.086;2023-02-15T08:46:27;127;115;
57884;PMS5003;43703;51.060;-0.086;2023-02-15T08:48:50;127;121;
57884;PMS5003;43703;51.060;-0.086;2023-02-15T08:51:16;110;101;
57884;PMS5003;43703;51.060;-0.086;2023-02-15T08:53:42;124;114;
57884;PMS5003;43703;51.060;-0.086;2023-02-15T08:56:06;116;109;
57884;PMS5003;43703;51.060;-0.086;2023-02-15T08:58:31;119;113;
57884;PMS5003;43703;51.060;-0.086;2023-02-15T09:00:57;109;103;
57884;PMS5003;43703;51.060;-0.086;2023-02-15T09:03:22;122;111;
57884;PMS5003;43703;51.060;-0.086;2023-02-15T09:05:48;125;110;
57884;PMS5003;43703;51.060;-0.086;2023-02-15T09:08:13;118;108;
57884;PMS5003;43703;51.060;-0.086;2023-02-15T09:10:39;116;110;
57884;PMS5003;43703;51.060;-0.086;2023-02-15T09:13:04;131;118;
57884;PMS5003;43703;51.060;-0.086;2023-02-15T09:15:29;122;109;
57884;PMS5003;43703;51.060;-0.086;2023-02-15T09:17:55;108;103;
57884;PMS5003;43703;51.060;-0.086;2023-02-15T09:20:20;98;95;
57884;PMS5003;43703;51.060;-0.086;2023-02-15T09:22:46;101;94;
57884;PMS5003;43703;51.060;-0.086;2023-02-15T09:25:11;96;91;
57884;PMS5003;43703;51.060;-0.086;2023-02-15T09:27:36;105;98;
57884;PMS5003;43703;51.060;-0.086;2023-02-15T09:30:01;95;91;
57884;PMS5003;43703;51.060;-0.086;2023-02-15T09:32:27;111;99;
57884;PMS5003;43703;51.060;-0.086;2023-02-15T09:34:52;86;80;
57884;PMS5003;43703;51.060;-0.086;2023-02-15T09:37:18;85;79;
57884;PMS5003;43703;51.060;-0.086;2023-02-15T09:39:43;81;79;
57884;PMS5003;43703;51.060;-0.086;2023-02-15T09:42:15;88;84;
57884;PMS5003;43703;51.060;-0.086;2023-02-15T09:44:38;79;72;
57884;PMS5003;43703;51.060;-0.086;2023-02-15T09:47:05;75;71;
57884;PMS5003;43703;51.060;-0.086;2023-02-15T09:49:25;77;72;
57884;PMS5003;43703;51.060;-0.086;2023-02-15T09:54:19;76;72;
57884;PMS5003;43703;51.060;-0.086;2023-02-15T09:56:42;73;72;
57884;PMS5003;43703;51.060;-0.086;2023-02-15T09:59:08;80;74;
57884;PMS5003;43703;51.060;-0.086;2023-02-15T10:01:33;86;79;
57884;PMS5003;43703;51.060;-0.086;2023-02-15T10:04:02;81;72;
57884;PMS5003;43703;51.060;-0.086;2023-02-15T10:06:27;73;71;
57884;PMS5003;43703;51.060;-0.086;2023-02-15T10:08:51;73;70;
57884;PMS5003;43703;51.060;-0.086;2023-02-15T10:11:14;69;65;
57884;PMS5003;43703;51.060;-0.086;2023-02-15T10:13:40;81;75;
57884;PMS5003;43703;51.060;-0.086;2023-02-15T10:16:09;66;63;
57884;PMS5003;43703;51.060;-0.086;2023-02-15T10:18:37;69;64;
57884;PMS5003;43703;51.060;-0.086;2023-02-15T10:20:56;70;66;
57884;PMS5003;43703;51.060;-0.086;2023-02-15T10:23:24;65;63;
57884;PMS5003;43703;51.060;-0.086;2023-02-15T10:25:46;71;67;
57884;PMS5003;43703;51.060;-0.086;2023-02-15T10:28:13;67;62;
57884;PMS5003;43703;51.060;-0.086;2023-02-15T10:30:38;68;62;
57884;PMS5003;43703;51.060;-0.086;2023-02-15T10:35:31;71;66;
57884;PMS5003;43703;51.060;-0.086;2023-02-15T10:37:56;65;62;
57884;PMS5003;43703;51.060;-0.086;2023-02-15T10:40:22;70;66;
57884;PMS5003;43703;51.060;-0.086;2023-02-15T10:42:48;57;55;
57884;PMS5003;43703;51.060;-0.086;2023-02-15T10:45:12;67;62;
57884;PMS5003;43703;51.060;-0.086;2023-02-15T10:47:40;64;57;
57884;PMS5003;43703;51.060;-0.086;2023-02-15T10:50:06;63;61;
57884;PMS5003;43703;51.060;-0.086;2023-02-15T10:52:30;56;55;
57884;PMS5003;43703;51.060;-0.086;2023-02-15T10:54:54;60;59;
57884;PMS5003;43703;51.060;-0.086;2023-02-15T10:57:19;57;53;
57884;PMS5003;43703;51.060;-0.086;2023-02-15T10:59:48;56;54;
57884;PMS5003;43703;51.060;-0.086;2023-02-15T11:02:10;56;55;
57884;PMS5003;43703;51.060;-0.086;2023-02-15T11:04:39;53;53;
57884;PMS5003;43703;51.060;-0.086;2023-02-15T11:07:02;58;58;
57884;PMS5003;43703;51.060;-0.086;2023-02-15T11:09:29;57;53;
57884;PMS5003;43703;51.060;-0.086;2023-02-15T11:11:52;53;50;
57884;PMS5003;43703;51.060;-0.086;2023-02-15T11:14:17;42;42;
57884;PMS5003;43703;51.060;-0.086;2023-02-15T11:16:42;45;45;
57884;PMS5003;43703;51.060;-0.086;2023-02-15T11:19:08;41;39;
57884;PMS5003;43703;51.060;-0.086;2023-02-15T11:21:34;48;45;
57884;PMS5003;43703;51.060;-0.086;2023-02-15T11:23:58;43;41;
57884;PMS5003;43703;51.060;-0.086;2023-02-15T11:26:26;41;41;
57884;PMS5003;43703;51.060;-0.086;2023-02-15T11:28:51;41;39;
57884;PMS5003;43703;51.060;-0.086;2023-02-15T11:31:16;41;39;
57884;PMS5003;43703;51.060;-0.086;2023-02-15T11:33:41;42;38;
57884;PMS5003;43703;51.060;-0.086;2023-02-15T11:36:06;43;40;
57884;PMS5003;43703;51.060;-0.086;2023-02-15T11:38:31;44;41;
57884;PMS5003;43703;51.060;-0.086;2023-02-15T11:40:56;39;38;
57884;PMS5003;43703;51.060;-0.086;2023-02-15T11:43:21;41;38;
57884;PMS5003;43703;51.060;-0.086;2023-02-15T11:45:46;42;36;
57884;PMS5003;43703;51.060;-0.086;2023-02-15T11:48:12;37;36;
57884;PMS5003;43703;51.060;-0.086;2023-02-15T11:50:37;40;36;
57884;PMS5003;43703;51.060;-0.086;2023-02-15T11:53:03;37;35;
57884;PMS5003;43703;51.060;-0.086;2023-02-15T11:55:27;40;36;
57884;PMS5003;43703;51.060;-0.086;2023-02-15T11:57:53;46;42;
57884;PMS5003;43703;51.060;-0.086;2023-02-15T12:00:22;39;37;
57884;PMS5003;43703;51.060;-0.086;2023-02-15T12:02:44;43;42;
57884;PMS5003;43703;51.060;-0.086;2023-02-15T12:05:10;37;34;
57884;PMS5003;43703;51.060;-0.086;2023-02-15T12:07:35;33;33;
57884;PMS5003;43703;51.060;-0.086;2023-02-15T12:10:02;40;38;
57884;PMS5003;43703;51.060;-0.086;2023-02-15T12:12:27;36;34;
57884;PMS5003;43703;51.060;-0.086;2023-02-15T12:14:51;33;33;
57884;PMS5003;43703;51.060;-0.086;2023-02-15T12:17:16;39;38;
57884;PMS5003;43703;51.060;-0.086;2023-02-15T12:19:42;34;32;
57884;PMS5003;43703;51.060;-0.086;2023-02-15T12:22:17;39;34;
57884;PMS5003;43703;51.060;-0.086;2023-02-15T12:24:34;40;36;
57884;PMS5003;43703;51.060;-0.086;2023-02-15T12:26:59;36;33;
57884;PMS5003;43703;51.060;-0.086;2023-02-15T12:29:23;35;34;
57884;PMS5003;43703;51.060;-0.086;2023-02-15T12:31:49;39;35;
57884;PMS5003;43703;51.060;-0.086;2023-02-15T12:34:18;31;30;
57884;PMS5003;43703;51.060;-0.086;2023-02-15T12:36:41;38;35;
57884;PMS5003;43703;51.060;-0.086;2023-02-15T12:39:16;41;39;
57884;PMS5003;43703;51.060;-0.086;2023-02-15T12:41:31;37;36;
57884;PMS5003;43703;51.060;-0.086;2023-02-15T12:46:22;33;30;
57884;PMS5003;43703;51.060;-0.086;2023-02-15T12:48:48;36;34;
57884;PMS5003;43703;51.060;-0.086;2023-02-15T12:51:14;32;32;
57884;PMS5003;43703;51.060;-0.086;2023-02-15T12:53:38;27;27;
57884;PMS5003;43703;51.060;-0.086;2023-02-15T12:56:04;38;35;
57884;PMS5003;43703;51.060;-0.086;2023-02-15T12:58:30;32;28;
57884;PMS5003;43703;51.060;-0.086;2023-02-15T13:03:21;31;28;
57884;PMS5003;43703;51.060;-0.086;2023-02-15T13:05:46;33;32;
57884;PMS5003;43703;51.060;-0.086;2023-02-15T13:08:12;33;32;
57884;PMS5003;43703;51.060;-0.086;2023-02-15T13:10:39;33;31;
57884;PMS5003;43703;51.060;-0.086;2023-02-15T13:13:08;33;29;
57884;PMS5003;43703;51.060;-0.086;2023-02-15T13:15:30;32;31;
57884;PMS5003;43703;51.060;-0.086;2023-02-15T13:17:55;36;35;
57884;PMS5003;43703;51.060;-0.086;2023-02-15T13:20:19;39;37;
57884;PMS5003;43703;51.060;-0.086;2023-02-15T13:22:44;45;39;
57884;PMS5003;43703;51.060;-0.086;2023-02-15T13:25:11;45;43;
57884;PMS5003;43703;51.060;-0.086;2023-02-15T13:27:35;44;42;
57884;PMS5003;43703;51.060;-0.086;2023-02-15T13:30:00;46;43;
57884;PMS5003;43703;51.060;-0.086;2023-02-15T13:32:28;41;37;
57884;PMS5003;43703;51.060;-0.086;2023-02-15T13:34:51;39;39;
57884;PMS5003;43703;51.060;-0.086;2023-02-15T13:37:18;37;35;
57884;PMS5003;43703;51.060;-0.086;2023-02-15T13:39:42;36;36;
57884;PMS5003;43703;51.060;-0.086;2023-02-15T13:42:13;34;30;
57884;PMS5003;43703;51.060;-0.086;2023-02-15T13:44:41;41;37;
57884;PMS5003;43703;51.060;-0.086;2023-02-15T13:47:02;36;31;
57884;PMS5003;43703;51.060;-0.086;2023-02-15T13:49:29;34;34;
57884;PMS5003;43703;51.060;-0.086;2023-02-15T13:51:51;31;31;
57884;PMS5003;43703;51.060;-0.086;2023-02-15T13:54:21;33;31;
57884;PMS5003;43703;51.060;-0.086;2023-02-15T13:56:43;30;28;
57884;PMS5003;43703;51.060;-0.086;2023-02-15T13:59:09;33;31;
57884;PMS5003;43703;51.060;-0.086;2023-02-15T14:01:31;32;30;
57884;PMS5003;43703;51.060;-0.086;2023-02-15T14:04:01;27;27;
57884;PMS5003;43703;51.060;-0.086;2023-02-15T14:06:26;33;29;
57884;PMS5003;43703;51.060;-0.086;2023-02-15T14:08:51;34;32;
57884;PMS5003;43703;51.060;-0.086;2023-02-15T14:11:12;35;33;
57884;PMS5003;43703;51.060;-0.086;2023-02-15T14:13:42;35;32;
57884;PMS5003;43703;51.060;-0.086;2023-02-15T14:16:03;29;27;
57884;PMS5003;43703;51.060;-0.086;2023-02-15T14:18:31;33;28;
57884;PMS5003;43703;51.060;-0.086;2023-02-15T14:20:57;33;29;
57884;PMS5003;43703;51.060;-0.086;2023-02-15T14:23:22;27;27;
57884;PMS5003;43703;51.060;-0.086;2023-02-15T14:25:45;35;32;
57884;PMS5003;43703;51.060;-0.086;2023-02-15T14:28:10;29;27;
57884;PMS5003;43703;51.060;-0.086;2023-02-15T14:30:36;25;25;
57884;PMS5003;43703;51.060;-0.086;2023-02-15T14:33:01;30;28;
57884;PMS5003;43703;51.060;-0.086;2023-02-15T14:35:26;31;30;
57884;PMS5003;43703;51.060;-0.086;2023-02-15T14:37:52;27;27;
57884;PMS5003;43703;51.060;-0.086;2023-02-15T14:40:18;28;28;
57884;PMS5003;43703;51.060;-0.086;2023-02-15T14:42:43;27;27;
57884;PMS5003;43703;51.060;-0.086;2023-02-15T14:47:35;30;30;
57884;PMS5003;43703;51.060;-0.086;2023-02-15T14:49:58;30;29;
57884;PMS5003;43703;51.060;-0.086;2023-02-15T14:52:23;31;29;
57884;PMS5003;43703;51.060;-0.086;2023-02-15T14:59:39;35;31;
57884;PMS5003;43703;51.060;-0.086;2023-02-15T15:02:12;28;28;
57884;PMS5003;43703;51.060;-0.086;2023-02-15T15:04:30;33;31;
57884;PMS5003;43703;51.060;-0.086;2023-02-15T15:06:59;32;30;
57884;PMS5003;43703;51.060;-0.086;2023-02-15T15:09:21;31;30;
57884;PMS5003;43703;51.060;-0.086;2023-02-15T15:11:46;34;32;
57884;PMS5003;43703;51.060;-0.086;2023-02-15T15:19:03;35;34;
57884;PMS5003;43703;51.060;-0.086;2023-02-15T15:23:53;38;34;
57884;PMS5003;43703;51.060;-0.086;2023-02-15T15:26:21;29;28;
57884;PMS5003;43703;51.060;-0.086;2023-02-15T15:31:13;40;38;
57884;PMS5003;43703;51.060;-0.086;2023-02-15T15:36:06;32;32;
57884;PMS5003;43703;51.060;-0.086;2023-02-15T15:38:29;37;32;
57884;PMS5003;43703;51.060;-0.086;2023-02-15T15:40:57;37;33;
57884;PMS5003;43703;51.060;-0.086;2023-02-15T15:43:24;34;31;
57884;PMS5003;43703;51.060;-0.086;2023-02-15T15:45:45;32;32;
57884;PMS5003;43703;51.060;-0.086;2023-02-15T15:50:33;33;32;
57884;PMS5003;43703;51.060;-0.086;2023-02-15T15:52:58;37;34;
57884;PMS5003;43703;51.060;-0.086;2023-02-15T15:55:24;33;30;
57884;PMS5003;43703;51.060;-0.086;2023-02-15T15:57:50;37;32;
57884;PMS5003;43703;51.060;-0.086;2023-02-15T16:05:06;36;32;
57884;PMS5003;43703;51.060;-0.086;2023-02-15T16:07:30;40;36;
57884;PMS5003;43703;51.060;-0.086;2023-02-15T16:09:56;37;36;
57884;PMS5003;43703;51.060;-0.086;2023-02-15T16:12:21;42;37;
57884;PMS5003;43703;51.060;-0.086;2023-02-15T16:14:46;38;38;
57884;PMS5003;43703;51.060;-0.086;2023-02-15T16:17:14;35;34;
57884;PMS5003;43703;51.060;-0.086;2023-02-15T16:19:38;40;37;